createdAt,value
2018-06-21T00:01:00.548Z,6.10
2018-06-21T00:03:29.615Z,6.67
2018-06-21T00:05:58.452Z,5.90
2018-06-21T00:08:27.085Z,5.33
2018-06-21T00:10:55.867Z,6.43
2018-06-21T00:13:24.485Z,6.23
2018-06-21T00:15:53.143Z,6.00
2018-06-21T00:18:21.830Z,5.40
2018-06-21T00:20:50.463Z,5.60
2018-06-21T00:23:19.153Z,6.00
2018-06-21T00:25:47.785Z,6.70
2018-06-21T00:28:16.460Z,7.17
2018-06-21T00:30:45.112Z,7.17
2018-06-21T00:33:13.764Z,5.70
2018-06-21T00:35:42.350Z,5.60
2018-06-21T00:38:11.011Z,6.00
2018-06-21T00:40:39.698Z,5.57
2018-06-21T00:43:08.557Z,6.50
2018-06-21T00:45:37.377Z,7.40
2018-06-21T00:48:06.092Z,5.67
2018-06-21T00:50:34.694Z,6.53
2018-06-21T00:53:03.468Z,7.50
2018-06-21T00:55:43.387Z,6.20
2018-06-21T00:58:12.135Z,6.90
2018-06-21T01:00:41.039Z,6.23
2018-06-21T01:03:09.576Z,7.10
2018-06-21T01:05:38.283Z,6.27
2018-06-21T01:08:06.948Z,6.07
2018-06-21T01:10:35.582Z,6.43
2018-06-21T01:13:04.189Z,6.93
2018-06-21T01:15:32.895Z,6.40
2018-06-21T01:18:01.746Z,7.00
2018-06-21T01:20:30.772Z,6.50
2018-06-21T01:22:59.387Z,8.10
2018-06-21T01:25:28.036Z,7.37
2018-06-21T01:27:56.738Z,7.70
2018-06-21T01:30:25.448Z,7.07
2018-06-21T01:32:54.004Z,8.30
2018-06-21T01:35:22.892Z,7.97
2018-06-21T01:37:51.619Z,7.60
2018-06-21T01:40:20.350Z,7.70
2018-06-21T01:42:49.055Z,8.57
2018-06-21T01:45:17.813Z,7.60
2018-06-21T01:47:46.536Z,8.03
2018-06-21T01:50:15.096Z,8.50
2018-06-21T01:52:44.156Z,7.87
2018-06-21T01:55:12.752Z,8.07
2018-06-21T01:57:41.453Z,8.00
2018-06-21T02:00:10.089Z,7.47
2018-06-21T02:02:38.676Z,6.70
2018-06-21T02:05:07.401Z,7.07
2018-06-21T02:07:36.017Z,7.13
2018-06-21T02:10:04.632Z,6.67
2018-06-21T02:12:33.358Z,7.20
2018-06-21T02:15:02.176Z,7.40
2018-06-21T02:17:30.995Z,7.33
2018-06-21T02:19:59.543Z,7.10
2018-06-21T02:22:28.284Z,7.87
2018-06-21T02:24:57.073Z,8.50
2018-06-21T02:27:26.597Z,6.90
2018-06-21T02:29:55.248Z,7.50
2018-06-21T02:32:24.169Z,7.20
2018-06-21T02:34:52.866Z,8.00
2018-06-21T02:37:21.589Z,6.83
2018-06-21T02:39:50.195Z,8.03
2018-06-21T02:42:18.724Z,8.50
2018-06-21T02:44:47.425Z,8.00
2018-06-21T02:47:16.102Z,7.47
2018-06-21T02:49:44.667Z,6.70
2018-06-21T02:52:13.353Z,7.70
2018-06-21T02:54:42.039Z,8.37
2018-06-21T02:57:10.685Z,7.60
2018-06-21T02:59:39.348Z,7.47
2018-06-21T03:02:08.275Z,7.20
2018-06-21T03:04:36.948Z,7.90
2018-06-21T03:07:05.572Z,7.87
2018-06-21T03:09:34.564Z,8.00
2018-06-21T03:12:03.244Z,8.17
2018-06-21T03:14:32.072Z,7.60
2018-06-21T03:17:00.670Z,8.20
2018-06-21T03:19:29.362Z,8.60
2018-06-21T03:21:58.395Z,8.90
2018-06-21T03:24:27.279Z,8.03
2018-06-21T03:26:55.935Z,7.33
2018-06-21T03:29:24.668Z,7.27
2018-06-21T03:31:53.321Z,8.30
2018-06-21T03:34:21.940Z,8.50
2018-06-21T03:36:50.623Z,8.17
2018-06-21T03:39:19.496Z,8.50
2018-06-21T03:41:48.093Z,8.07
2018-06-21T03:44:16.894Z,9.13
2018-06-21T03:46:45.882Z,8.20
2018-06-21T03:49:14.578Z,7.60
2018-06-21T03:51:43.246Z,8.23
2018-06-21T03:54:12.034Z,8.03
2018-06-21T03:56:41.246Z,8.93
2018-06-21T03:59:09.946Z,7.53
2018-06-21T04:01:38.748Z,7.70
2018-06-21T04:04:07.497Z,8.30
2018-06-21T04:06:36.476Z,8.33
2018-06-21T04:09:07.923Z,8.40
2018-06-21T04:11:36.789Z,8.30
2018-06-21T04:14:05.622Z,7.43
2018-06-21T04:16:34.703Z,7.53
2018-06-21T04:19:03.391Z,8.10
2018-06-21T04:21:32.203Z,7.87
2018-06-21T04:24:00.976Z,8.40
2018-06-21T04:26:29.746Z,8.30
2018-06-21T04:28:58.562Z,7.60
2018-06-21T04:31:27.444Z,7.90
2018-06-21T04:33:56.316Z,7.10
2018-06-21T04:36:25.885Z,7.20
2018-06-21T04:38:54.769Z,8.27
2018-06-21T04:41:23.771Z,7.77
2018-06-21T04:43:52.432Z,8.10
2018-06-21T04:46:21.350Z,7.23
2018-06-21T04:48:50.089Z,8.70
2018-06-21T04:51:18.938Z,7.73
2018-06-21T04:53:47.692Z,8.33
2018-06-21T04:56:16.580Z,7.83
2018-06-21T04:58:45.183Z,9.17
2018-06-21T05:01:14.032Z,7.63
2018-06-21T05:03:42.712Z,7.80
2018-06-21T05:06:11.404Z,8.47
2018-06-21T05:08:40.499Z,8.60
2018-06-21T05:11:09.181Z,7.53
2018-06-21T05:13:38.096Z,9.37
2018-06-21T05:16:06.776Z,8.03
2018-06-21T05:18:35.444Z,7.07
2018-06-21T05:21:04.088Z,7.57
2018-06-21T05:23:33.211Z,8.37
2018-06-21T05:26:01.976Z,6.93
2018-06-21T05:28:30.672Z,7.53
2018-06-21T05:30:59.409Z,6.90
2018-06-21T05:33:28.031Z,7.60
2018-06-21T05:35:56.755Z,6.73
2018-06-21T05:38:25.410Z,7.00
2018-06-21T05:40:54.801Z,6.70
2018-06-21T05:43:23.551Z,7.90
2018-06-21T05:45:52.521Z,6.43
2018-06-21T05:48:21.209Z,6.33
2018-06-21T05:50:50.101Z,6.17
2018-06-21T05:53:19.071Z,6.87
2018-06-21T05:55:47.732Z,5.50
2018-06-21T05:58:16.360Z,5.90
2018-06-21T06:00:44.942Z,5.77
2018-06-21T06:03:13.540Z,5.13
2018-06-21T06:05:42.111Z,5.10
2018-06-21T06:08:10.884Z,4.40
2018-06-21T06:10:39.482Z,4.43
2018-06-21T06:13:08.082Z,4.30
2018-06-21T06:15:37.058Z,3.97
2018-06-21T06:18:05.641Z,4.43
2018-06-21T06:20:34.232Z,3.30
2018-06-21T06:23:02.911Z,3.27
2018-06-21T06:25:31.455Z,3.30
2018-06-21T06:27:59.995Z,3.00
2018-06-21T06:30:28.850Z,2.87
2018-06-21T06:32:57.464Z,3.40
2018-06-21T06:35:28.888Z,3.60
2018-06-21T06:37:58.089Z,3.03
2018-06-21T06:40:26.666Z,3.17
2018-06-21T06:42:55.588Z,3.10
2018-06-21T06:45:24.942Z,2.30
2018-06-21T06:47:53.671Z,2.87
2018-06-21T06:50:22.316Z,2.40
2018-06-21T06:52:51.033Z,2.50
2018-06-21T06:55:19.841Z,2.40
2018-06-21T06:57:48.710Z,2.57
2018-06-21T07:00:17.329Z,1.70
2018-06-21T07:02:45.876Z,2.50
2018-06-21T07:05:14.444Z,2.63
2018-06-21T07:07:43.047Z,2.20
2018-06-21T07:10:11.628Z,2.50
2018-06-21T07:12:40.338Z,2.50
2018-06-21T07:15:09.569Z,2.40
2018-06-21T07:17:38.128Z,2.20
2018-06-21T07:20:07.228Z,2.37
2018-06-21T07:22:35.924Z,2.10
2018-06-21T07:25:04.664Z,2.17
2018-06-21T07:27:33.247Z,2.00
2018-06-21T07:30:01.788Z,2.33
2018-06-21T07:32:30.312Z,2.03
2018-06-21T07:34:58.897Z,1.70
2018-06-21T07:37:27.685Z,2.23
2018-06-21T07:39:56.577Z,2.37
2018-06-21T07:42:25.210Z,2.00
2018-06-21T07:44:53.759Z,1.80
2018-06-21T07:47:22.295Z,1.87
2018-06-21T07:49:51.339Z,1.80
2018-06-21T07:52:19.893Z,2.97
2018-06-21T07:54:48.576Z,2.53
2018-06-21T07:57:17.476Z,2.27
2018-06-21T07:59:46.018Z,2.00
2018-06-21T08:02:14.673Z,2.10
2018-06-21T08:04:43.411Z,1.77
2018-06-21T08:07:12.226Z,2.50
2018-06-21T08:09:40.758Z,2.80
2018-06-21T08:12:09.464Z,2.33
2018-06-21T08:14:38.140Z,2.30
2018-06-21T08:17:07.021Z,2.90
2018-06-21T08:19:35.957Z,3.37
2018-06-21T08:22:04.767Z,3.87
2018-06-21T08:24:33.600Z,4.20
2018-06-21T08:27:02.631Z,2.97
2018-06-21T08:29:31.312Z,4.73
2018-06-21T08:31:59.887Z,4.40
2018-06-21T08:34:29.094Z,3.67
2018-06-21T08:36:57.629Z,3.33
2018-06-21T08:39:26.180Z,3.90
2018-06-21T08:41:55.031Z,3.27
2018-06-21T08:44:23.663Z,2.90
2018-06-21T08:46:52.215Z,3.90
2018-06-21T08:49:20.987Z,5.00
2018-06-21T08:51:49.591Z,4.30
2018-06-21T08:54:18.113Z,3.60
2018-06-21T08:56:47.165Z,4.53
2018-06-21T08:59:15.750Z,3.70
2018-06-21T09:01:44.300Z,3.37
2018-06-21T09:04:13.771Z,3.63
2018-06-21T09:06:42.339Z,3.87
2018-06-21T09:09:11.109Z,3.90
2018-06-21T09:11:39.897Z,3.63
2018-06-21T09:14:08.480Z,3.73
2018-06-21T09:16:37.162Z,3.67
2018-06-21T09:19:05.923Z,4.30
2018-06-21T09:21:34.463Z,3.80
2018-06-21T09:24:03.008Z,3.43
2018-06-21T09:26:31.682Z,4.47
2018-06-21T09:29:00.285Z,4.30
2018-06-21T09:31:28.869Z,3.90
2018-06-21T09:33:57.636Z,3.67
2018-06-21T09:36:26.236Z,4.00
2018-06-21T09:39:00.004Z,4.87
2018-06-21T09:41:33.954Z,4.20
2018-06-21T09:44:07.887Z,4.23
2018-06-21T09:46:41.904Z,3.87
2018-06-21T09:49:10.472Z,3.90
2018-06-21T09:51:39.049Z,4.67
2018-06-21T09:54:07.604Z,3.90
2018-06-21T09:56:36.315Z,4.33
2018-06-21T09:59:04.891Z,3.87
2018-06-21T10:01:33.489Z,4.00
2018-06-21T10:04:02.249Z,4.43
2018-06-21T10:06:30.950Z,3.73
2018-06-21T10:08:59.596Z,3.80
2018-06-21T10:11:28.320Z,4.50
2018-06-21T10:13:56.958Z,3.63
2018-06-21T10:16:25.488Z,4.33
2018-06-21T10:18:54.336Z,4.53
2018-06-21T10:21:22.991Z,3.93
2018-06-21T10:23:51.731Z,3.50
2018-06-21T10:26:20.333Z,4.03
2018-06-21T10:28:48.927Z,3.40
2018-06-21T10:31:17.540Z,4.00
2018-06-21T10:33:46.219Z,3.73
2018-06-21T10:36:14.871Z,3.87
2018-06-21T10:38:43.487Z,3.73
2018-06-21T10:41:12.243Z,4.23
2018-06-21T10:43:40.867Z,4.13
2018-06-21T10:46:09.433Z,3.50
2018-06-21T10:48:38.323Z,3.57
2018-06-21T10:51:06.975Z,3.20
2018-06-21T10:53:35.497Z,2.70
2018-06-21T10:56:04.275Z,3.10
2018-06-21T10:58:33.035Z,3.87
2018-06-21T11:01:01.644Z,3.23
2018-06-21T11:03:30.314Z,3.93
2018-06-21T11:05:58.897Z,3.97
2018-06-21T11:08:27.432Z,3.37
2018-06-21T11:10:56.267Z,3.73
2018-06-21T11:13:24.852Z,3.63
2018-06-21T11:15:53.424Z,3.43
2018-06-21T11:18:22.020Z,3.60
2018-06-21T11:20:50.644Z,3.90
2018-06-21T11:23:19.303Z,3.33
2018-06-21T11:25:47.875Z,3.60
2018-06-21T11:28:16.453Z,4.13
2018-06-21T11:30:51.800Z,3.23
2018-06-21T11:33:20.481Z,3.47
2018-06-21T11:35:49.212Z,3.00
2018-06-21T11:38:17.768Z,3.73
2018-06-21T11:40:46.311Z,3.17
2018-06-21T11:43:14.831Z,3.60
2018-06-21T11:45:43.468Z,3.60
2018-06-21T11:48:12.040Z,3.20
2018-06-21T11:50:40.732Z,3.83
2018-06-21T11:53:09.319Z,4.00
2018-06-21T11:55:37.845Z,2.77
2018-06-21T11:58:06.484Z,4.00
2018-06-21T12:00:35.112Z,2.80
2018-06-21T12:03:03.804Z,3.40
2018-06-21T12:05:32.479Z,3.60
2018-06-21T12:08:01.207Z,3.37
2018-06-21T12:10:29.848Z,4.47
2018-06-21T12:12:58.572Z,2.83
2018-06-21T12:15:27.528Z,3.67
2018-06-21T12:17:56.111Z,2.80
2018-06-21T12:20:24.692Z,3.63
2018-06-21T12:22:53.289Z,3.13
2018-06-21T12:25:22.069Z,3.10
2018-06-21T12:27:50.692Z,2.60
2018-06-21T12:30:19.595Z,2.60
2018-06-21T12:32:48.547Z,3.30
2018-06-21T12:35:17.116Z,3.60
2018-06-21T12:37:45.684Z,3.17
2018-06-21T12:40:14.212Z,3.30
2018-06-21T12:42:42.969Z,3.47
2018-06-21T12:45:12.373Z,3.50
2018-06-21T12:47:40.956Z,3.33
2018-06-21T12:50:09.684Z,3.17
2018-06-21T12:52:38.631Z,3.10
2018-06-21T12:55:07.318Z,3.60
2018-06-21T12:57:35.911Z,3.30
2018-06-21T13:00:05.286Z,2.90
2018-06-21T13:02:34.356Z,2.67
2018-06-21T13:05:03.104Z,2.70
2018-06-21T13:07:32.078Z,3.10
2018-06-21T13:10:11.834Z,3.17
2018-06-21T13:12:51.995Z,2.93
2018-06-21T13:15:20.691Z,2.60
2018-06-21T13:17:49.349Z,2.40
2018-06-21T13:20:18.159Z,2.70
2018-06-21T13:22:46.865Z,2.37
2018-06-21T13:25:15.456Z,3.00
2018-06-21T13:27:44.107Z,2.00
2018-06-21T13:30:12.676Z,2.50
2018-06-21T13:32:41.282Z,2.40
2018-06-21T13:35:10.172Z,2.03
2018-06-21T13:37:39.425Z,2.10
2018-06-21T13:40:08.347Z,1.67
2018-06-21T13:42:37.269Z,1.63
2018-06-21T13:45:06.360Z,2.10
2018-06-21T13:47:34.972Z,1.37
2018-06-21T13:50:04.199Z,2.07
2018-06-21T13:52:32.735Z,2.10
2018-06-21T13:55:01.412Z,1.80
2018-06-21T13:57:30.112Z,1.80
2018-06-21T13:59:58.748Z,1.63
2018-06-21T14:02:27.397Z,2.27
2018-06-21T14:04:56.235Z,2.33
2018-06-21T14:07:25.160Z,1.70
2018-06-21T14:09:54.092Z,2.50
2018-06-21T14:12:23.224Z,3.30
2018-06-21T14:14:51.926Z,2.93
2018-06-21T14:17:20.575Z,4.50
2018-06-21T14:19:49.341Z,2.50
2018-06-21T14:22:17.946Z,2.67
2018-06-21T14:24:46.549Z,2.73
2018-06-21T14:27:15.139Z,2.80
2018-06-21T14:29:43.700Z,2.13
2018-06-21T14:32:12.483Z,2.13
2018-06-21T14:34:41.071Z,2.57
2018-06-21T14:37:09.652Z,3.63
2018-06-21T14:39:38.252Z,2.60
2018-06-21T14:42:06.954Z,2.73
2018-06-21T14:44:35.679Z,2.27
2018-06-21T14:49:38.903Z,2.50
2018-06-21T14:52:07.535Z,2.90
2018-06-21T14:54:36.116Z,3.03
2018-06-21T14:57:05.104Z,2.87
2018-06-21T14:59:33.736Z,2.20
2018-06-21T15:02:02.393Z,2.60
2018-06-21T15:04:31.013Z,2.57
2018-06-21T15:06:59.997Z,2.60
2018-06-21T15:09:28.792Z,2.10
2018-06-21T15:11:57.658Z,2.57
2018-06-21T15:14:26.293Z,2.60
2018-06-21T15:16:54.896Z,2.70
2018-06-21T15:19:23.759Z,2.70
2018-06-21T15:21:52.403Z,2.63
2018-06-21T15:24:20.963Z,2.50
2018-06-21T15:26:49.672Z,2.03
2018-06-21T15:29:18.609Z,2.13
2018-06-21T15:31:47.384Z,2.50
2018-06-21T15:34:15.977Z,1.93
2018-06-21T15:36:44.661Z,2.23
2018-06-21T15:39:20.475Z,1.97
2018-06-21T15:41:49.023Z,2.53
2018-06-21T15:44:18.094Z,2.70
2018-06-21T15:46:46.697Z,2.47
2018-06-21T15:49:15.823Z,2.40
2018-06-21T15:51:44.671Z,2.50
2018-06-21T15:54:13.318Z,2.90
2018-06-21T15:56:41.910Z,2.77
2018-06-21T15:59:10.940Z,2.67
2018-06-21T16:01:39.610Z,3.03
2018-06-21T16:04:08.603Z,2.47
2018-06-21T16:06:37.139Z,2.80
2018-06-21T16:09:08.156Z,2.80
2018-06-21T16:11:36.829Z,2.50
2018-06-21T16:14:05.428Z,3.00
2018-06-21T16:16:34.082Z,2.97
2018-06-21T16:19:02.663Z,2.57
2018-06-21T16:21:31.256Z,2.33
2018-06-21T16:23:59.784Z,3.40
2018-06-21T16:26:30.483Z,2.40
2018-06-21T16:28:59.443Z,2.53
2018-06-21T16:31:28.042Z,2.97
2018-06-21T16:33:56.882Z,3.03
2018-06-21T16:36:25.419Z,3.10
2018-06-21T16:38:54.028Z,3.10
2018-06-21T16:41:22.584Z,3.63
2018-06-21T16:43:51.178Z,3.20
2018-06-21T16:46:25.270Z,4.50
2018-06-21T16:48:55.417Z,2.53
2018-06-21T16:51:27.360Z,3.23
2018-06-21T16:53:57.971Z,4.80
2018-06-21T16:56:26.584Z,4.97
2018-06-21T16:58:55.517Z,9.13
2018-06-21T17:01:24.067Z,11.93
2018-06-21T17:03:52.688Z,3.50
2018-06-21T17:06:21.314Z,4.20
2018-06-21T17:08:49.876Z,3.40
2018-06-21T17:11:18.441Z,3.73
2018-06-21T17:13:47.064Z,3.43
2018-06-21T17:16:15.647Z,2.97
2018-06-21T17:18:44.237Z,3.10
2018-06-21T17:21:13.009Z,3.30
2018-06-21T17:23:41.583Z,2.87
2018-06-21T17:26:10.174Z,2.97
2018-06-21T17:28:38.748Z,2.10
2018-06-21T17:31:07.323Z,2.40
2018-06-21T17:33:36.154Z,2.80
2018-06-21T17:36:04.816Z,2.13
2018-06-21T17:38:34.127Z,2.40
2018-06-21T17:41:04.723Z,3.57
2018-06-21T17:43:35.491Z,2.73
2018-06-21T17:46:04.236Z,2.17
2018-06-21T17:48:32.888Z,2.03
2018-06-21T17:51:01.962Z,1.93
2018-06-21T17:53:31.176Z,3.30
2018-06-21T17:56:01.297Z,2.10
2018-06-21T17:58:32.251Z,2.20
2018-06-21T18:01:01.208Z,3.57
2018-06-21T18:03:30.261Z,2.57
2018-06-21T18:05:59.084Z,2.10
2018-06-21T18:08:27.768Z,2.07
2018-06-21T18:10:56.851Z,2.43
2018-06-21T18:13:25.496Z,1.67
2018-06-21T18:15:54.261Z,2.40
2018-06-21T18:18:22.888Z,2.37
2018-06-21T18:20:51.567Z,1.30
2018-06-21T18:23:20.384Z,1.47
2018-06-21T18:25:48.977Z,2.13
2018-06-21T18:28:17.649Z,1.97
2018-06-21T18:30:46.467Z,1.57
2018-06-21T18:33:14.990Z,1.90
2018-06-21T18:35:44.011Z,2.20
2018-06-21T18:38:12.553Z,1.70
2018-06-21T18:40:41.159Z,2.23
2018-06-21T18:43:33.666Z,1.80
2018-06-21T18:46:23.608Z,2.33
2018-06-21T18:49:14.340Z,2.60
2018-06-21T18:51:59.270Z,2.13
2018-06-21T18:54:46.670Z,1.50
2018-06-21T18:57:27.070Z,1.80
2018-06-21T19:00:12.621Z,2.27
2018-06-21T19:02:59.285Z,1.40
2018-06-21T19:05:47.362Z,2.37
2018-06-21T19:08:35.722Z,1.67
2018-06-21T19:11:19.795Z,1.77
2018-06-21T19:13:56.195Z,2.40
2018-06-21T19:16:25.056Z,1.37
2018-06-21T19:18:53.752Z,1.20
2018-06-21T19:21:22.572Z,1.73
2018-06-21T19:23:51.243Z,1.50
2018-06-21T19:26:20.061Z,1.93
2018-06-21T19:28:48.619Z,1.47
2018-06-21T19:31:17.513Z,1.20
2018-06-21T19:33:46.693Z,1.20
2018-06-21T19:36:15.315Z,1.40
2018-06-21T19:38:44.016Z,1.60
2018-06-21T19:41:12.679Z,1.50
2018-06-21T19:43:41.529Z,1.60
2018-06-21T19:46:10.368Z,2.10
2018-06-21T19:48:38.942Z,1.87
2018-06-21T19:51:07.535Z,1.40
2018-06-21T19:53:36.215Z,1.60
2018-06-21T19:56:05.400Z,1.30
2018-06-21T19:58:34.101Z,2.40
2018-06-21T20:01:03.044Z,1.60
2018-06-21T20:03:31.756Z,2.17
2018-06-21T20:06:00.376Z,1.80
2018-06-21T20:08:28.948Z,1.90
2018-06-21T20:11:03.000Z,1.67
2018-06-21T20:13:43.359Z,1.73
2018-06-21T20:16:12.008Z,1.47
2018-06-21T20:18:41.458Z,2.37
2018-06-21T20:21:14.121Z,1.43
2018-06-21T20:23:44.672Z,1.23
2018-06-21T20:26:13.857Z,2.27
2018-06-21T20:28:44.771Z,2.13
2018-06-21T20:31:17.901Z,1.50
2018-06-21T20:33:48.211Z,1.50
2018-06-21T20:36:17.726Z,1.80
2018-06-21T20:38:46.931Z,1.80
2018-06-21T20:41:15.607Z,1.90
2018-06-21T20:43:44.651Z,2.00
2018-06-21T20:46:13.356Z,1.93
2018-06-21T20:48:42.261Z,2.90
2018-06-21T20:51:13.318Z,2.27
2018-06-21T20:53:43.379Z,2.00
2018-06-21T20:56:12.383Z,1.80
2018-06-21T20:58:41.325Z,1.53
2018-06-21T21:01:10.419Z,1.90
2018-06-21T21:03:39.045Z,1.67
2018-06-21T21:06:07.635Z,1.07
2018-06-21T21:08:36.135Z,2.00
2018-06-21T21:11:04.695Z,1.97
2018-06-21T21:13:33.368Z,2.93
2018-06-21T21:16:01.987Z,2.47
2018-06-21T21:18:30.531Z,2.90
2018-06-21T21:20:59.116Z,2.50
2018-06-21T21:23:28.519Z,2.17
2018-06-21T21:25:57.016Z,1.97
2018-06-21T21:28:26.118Z,2.73
2018-06-21T21:30:55.261Z,2.30
2018-06-21T21:33:23.875Z,2.67
2018-06-21T21:35:52.473Z,1.73
2018-06-21T21:38:21.039Z,2.00
2018-06-21T21:40:49.648Z,2.53
2018-06-21T21:43:18.196Z,2.20
2018-06-21T21:45:46.968Z,1.50
2018-06-21T21:48:15.585Z,2.87
2018-06-21T21:50:44.159Z,1.63
2018-06-21T21:53:12.773Z,2.27
2018-06-21T21:55:41.631Z,1.90
2018-06-21T21:58:10.576Z,1.97
2018-06-21T22:00:47.635Z,1.90
2018-06-21T22:03:16.836Z,2.00
2018-06-21T22:05:45.755Z,2.20
2018-06-21T22:08:14.374Z,1.93
2018-06-21T22:10:44.272Z,2.07
2018-06-21T22:13:13.739Z,1.60
2018-06-21T22:15:42.872Z,2.47
2018-06-21T22:18:12.299Z,1.70
2018-06-21T22:20:41.321Z,2.63
2018-06-21T22:23:10.244Z,1.70
2018-06-21T22:25:38.863Z,1.83
2018-06-21T22:28:07.712Z,2.50
2018-06-21T22:30:36.359Z,1.40
2018-06-21T22:33:04.920Z,1.17
2018-06-21T22:35:33.947Z,1.80
2018-06-21T22:38:02.572Z,2.17
2018-06-21T22:40:31.553Z,1.90
2018-06-21T22:43:00.188Z,1.90
2018-06-21T22:45:29.540Z,1.37
2018-06-21T22:47:58.759Z,1.70
2018-06-21T22:50:27.831Z,1.80
2018-06-21T22:52:56.787Z,2.47
2018-06-21T22:55:25.351Z,2.20
2018-06-21T22:57:54.499Z,2.37
2018-06-21T23:00:23.051Z,2.03
2018-06-21T23:02:51.617Z,2.17
2018-06-21T23:05:20.467Z,1.90
2018-06-21T23:07:49.320Z,1.33
2018-06-21T23:10:18.027Z,1.97
2018-06-21T23:12:46.584Z,2.77
2018-06-21T23:15:15.735Z,1.80
2018-06-21T23:17:44.507Z,2.33
2018-06-21T23:20:13.028Z,1.90
2018-06-21T23:22:41.556Z,1.90
2018-06-21T23:25:10.216Z,1.60
2018-06-21T23:27:38.727Z,2.00
2018-06-21T23:30:07.299Z,2.20
2018-06-21T23:32:35.816Z,2.20
2018-06-21T23:35:04.438Z,2.10
2018-06-21T23:37:33.027Z,2.10
2018-06-21T23:40:01.527Z,2.20
2018-06-21T23:42:30.107Z,2.43
2018-06-21T23:44:58.665Z,2.10
2018-06-21T23:47:27.271Z,2.40
2018-06-21T23:49:56.175Z,1.77
2018-06-21T23:52:24.667Z,1.97
2018-06-21T23:54:53.236Z,1.97
2018-06-21T23:57:21.752Z,2.40
2018-06-21T23:59:50.671Z,3.27
